createdAt,value
2023-06-01T00:00:58.936Z,0.00
2023-06-01T00:01:59.578Z,0.00
2023-06-01T00:04:01.562Z,0.00
2023-06-01T00:05:01.999Z,0.00
2023-06-01T00:06:02.876Z,0.00
2023-06-01T00:07:03.772Z,0.00
2023-06-01T00:08:04.645Z,0.00
2023-06-01T00:09:05.534Z,0.00
2023-06-01T00:10:06.397Z,0.00
2023-06-01T00:11:07.285Z,0.00
2023-06-01T00:12:08.162Z,0.00
2023-06-01T00:13:09.059Z,0.00
2023-06-01T00:14:09.935Z,0.00
2023-06-01T00:15:10.819Z,0.00
2023-06-01T00:16:11.762Z,0.00
2023-06-01T00:17:12.662Z,0.00
2023-06-01T00:18:13.543Z,0.00
2023-06-01T00:19:14.423Z,0.00
2023-06-01T00:20:15.295Z,0.00
2023-06-01T00:21:16.223Z,0.00
2023-06-01T00:22:17.103Z,0.00
2023-06-01T00:23:17.988Z,0.00
2023-06-01T00:24:18.895Z,0.00
2023-06-01T00:25:19.808Z,0.00
2023-06-01T00:26:20.700Z,0.00
2023-06-01T00:27:21.593Z,0.00
2023-06-01T00:28:22.476Z,0.00
2023-06-01T00:29:23.375Z,0.00
2023-06-01T00:30:24.276Z,0.00
2023-06-01T00:31:25.223Z,0.00
2023-06-01T00:32:26.083Z,0.00
2023-06-01T00:33:26.962Z,0.00
2023-06-01T00:34:27.841Z,0.00
2023-06-01T00:35:28.736Z,0.00
2023-06-01T00:36:29.617Z,0.00
2023-06-01T00:37:30.498Z,0.00
2023-06-01T00:38:31.376Z,0.00
2023-06-01T00:39:32.254Z,0.00
2023-06-01T00:40:33.147Z,0.00
2023-06-01T00:41:34.032Z,0.00
2023-06-01T00:42:34.908Z,0.00
2023-06-01T00:43:35.787Z,0.00
2023-06-01T00:44:36.655Z,0.00
2023-06-01T00:45:37.548Z,0.00
2023-06-01T00:46:38.571Z,0.00
2023-06-01T00:47:39.010Z,0.00
2023-06-01T00:48:39.858Z,0.00
2023-06-01T00:49:40.758Z,0.00
2023-06-01T00:50:41.637Z,0.00
2023-06-01T00:51:42.525Z,0.00
2023-06-01T00:52:43.408Z,0.00
2023-06-01T00:53:44.289Z,0.00
2023-06-01T00:54:45.185Z,0.00
2023-06-01T00:55:46.050Z,0.00
2023-06-01T00:56:46.922Z,0.00
2023-06-01T00:57:47.801Z,0.00
2023-06-01T00:58:48.678Z,0.00
2023-06-01T00:59:49.573Z,0.00
2023-06-01T01:00:50.524Z,0.00
2023-06-01T01:01:50.922Z,0.00
2023-06-01T01:02:51.829Z,0.00
2023-06-01T01:03:52.688Z,0.00
2023-06-01T01:04:53.715Z,0.00
2023-06-01T01:05:54.212Z,0.00
2023-06-01T01:06:55.095Z,0.00
2023-06-01T01:07:55.970Z,0.00
2023-06-01T01:08:56.845Z,0.00
2023-06-01T01:09:57.731Z,0.00
2023-06-01T01:10:58.705Z,0.00
2023-06-01T01:11:59.125Z,0.00
2023-06-01T01:13:00.003Z,0.00
2023-06-01T01:14:00.920Z,0.00
2023-06-01T01:15:01.785Z,0.00
2023-06-01T01:16:02.675Z,0.00
2023-06-01T01:17:03.602Z,0.00
2023-06-01T01:18:04.501Z,0.00
2023-06-01T01:19:05.357Z,0.00
2023-06-01T01:20:06.240Z,0.00
2023-06-01T01:21:07.115Z,0.00
2023-06-01T01:22:07.990Z,0.00
2023-06-01T01:23:08.861Z,0.00
2023-06-01T01:24:09.756Z,0.00
2023-06-01T01:25:10.634Z,0.00
2023-06-01T01:26:11.518Z,0.00
2023-06-01T01:27:12.385Z,0.00
2023-06-01T01:28:13.275Z,0.00
2023-06-01T01:29:14.156Z,0.00
2023-06-01T01:30:15.056Z,0.00
2023-06-01T01:31:15.941Z,0.00
2023-06-01T01:32:16.835Z,0.00
2023-06-01T01:33:17.678Z,0.00
2023-06-01T01:34:18.559Z,0.00
2023-06-01T01:35:19.438Z,0.00
2023-06-01T01:36:20.307Z,0.00
2023-06-01T01:37:21.182Z,0.00
2023-06-01T01:38:22.075Z,0.00
2023-06-01T01:39:22.945Z,0.00
2023-06-01T01:40:23.825Z,0.00
2023-06-01T01:41:24.700Z,0.00
2023-06-01T01:42:25.620Z,0.00
2023-06-01T01:43:26.494Z,0.00
2023-06-01T01:44:27.436Z,0.00
2023-06-01T01:45:28.320Z,0.00
2023-06-01T01:46:29.205Z,0.00
2023-06-01T01:47:30.182Z,0.00
2023-06-01T01:48:30.573Z,0.00
2023-06-01T01:49:31.455Z,0.00
2023-06-01T01:50:32.337Z,0.00
2023-06-01T01:51:33.225Z,0.00
2023-06-01T01:52:34.179Z,0.00
2023-06-01T01:53:35.052Z,0.00
2023-06-01T01:54:35.934Z,0.00
2023-06-01T01:55:36.806Z,0.00
2023-06-01T01:56:37.698Z,0.00
2023-06-01T01:57:38.576Z,0.00
2023-06-01T01:58:39.463Z,0.00
2023-06-01T01:59:40.349Z,0.00
2023-06-01T02:00:41.218Z,0.00
2023-06-01T02:01:42.124Z,0.00
2023-06-01T02:02:43.054Z,0.00
2023-06-01T02:03:44.085Z,0.00
2023-06-01T02:04:44.484Z,0.00
2023-06-01T02:05:45.349Z,0.00
2023-06-01T02:06:46.250Z,0.00
2023-06-01T02:07:47.113Z,0.00
2023-06-01T02:08:47.994Z,0.00
2023-06-01T02:09:48.863Z,0.00
2023-06-01T02:10:49.756Z,0.00
2023-06-01T02:11:50.658Z,0.00
2023-06-01T02:12:51.535Z,0.00
2023-06-01T02:13:52.432Z,0.00
2023-06-01T02:14:53.303Z,0.00
2023-06-01T02:15:54.199Z,0.00
2023-06-01T02:16:55.081Z,0.00
2023-06-01T02:17:55.989Z,0.00
2023-06-01T02:18:56.832Z,0.00
2023-06-01T02:19:57.721Z,0.00
2023-06-01T02:20:58.662Z,0.00
2023-06-01T02:21:59.684Z,0.00
2023-06-01T02:23:00.550Z,0.00
2023-06-01T02:24:01.428Z,0.00
2023-06-01T02:25:02.314Z,0.00
2023-06-01T02:26:03.201Z,0.00
2023-06-01T02:27:04.086Z,0.00
2023-06-01T02:28:04.947Z,0.00
2023-06-01T02:29:05.838Z,0.00
2023-06-01T02:30:06.742Z,0.00
2023-06-01T02:31:07.599Z,0.00
2023-06-01T02:32:08.560Z,0.00
2023-06-01T02:33:09.518Z,0.00
2023-06-01T02:34:10.447Z,0.00
2023-06-01T02:35:11.328Z,0.00
2023-06-01T02:36:12.195Z,0.00
2023-06-01T02:37:13.088Z,0.00
2023-06-01T02:38:13.959Z,0.00
2023-06-01T02:39:14.848Z,0.00
2023-06-01T02:40:15.745Z,0.00
2023-06-01T02:41:16.593Z,0.00
2023-06-01T02:42:17.480Z,0.00
2023-06-01T02:43:18.378Z,0.00
2023-06-01T02:44:19.247Z,0.00
2023-06-01T02:45:20.156Z,0.00
2023-06-01T02:46:21.113Z,0.00
2023-06-01T02:47:22.014Z,0.00
2023-06-01T02:48:22.882Z,0.00
2023-06-01T02:49:23.766Z,0.00
2023-06-01T02:50:24.652Z,0.00
2023-06-01T02:51:25.538Z,0.00
2023-06-01T02:52:26.411Z,0.00
2023-06-01T02:53:27.302Z,0.00
2023-06-01T02:54:28.190Z,0.00
2023-06-01T02:55:29.007Z,1.00
2023-06-01T02:56:29.891Z,0.00
2023-06-01T02:57:30.777Z,0.00
2023-06-01T02:58:31.663Z,0.00
2023-06-01T02:59:32.499Z,1.00
2023-06-01T03:00:33.314Z,1.00
2023-06-01T03:01:34.289Z,0.00
2023-06-01T03:02:35.221Z,0.00
2023-06-01T03:03:36.089Z,0.00
2023-06-01T03:04:36.902Z,2.00
2023-06-01T03:05:37.729Z,1.00
2023-06-01T03:06:38.680Z,1.00
2023-06-01T03:07:39.277Z,0.00
2023-06-01T03:08:40.108Z,2.00
2023-06-01T03:09:40.934Z,1.00
2023-06-01T03:10:41.753Z,2.00
2023-06-01T03:11:42.592Z,5.00
2023-06-01T03:12:43.422Z,4.00
2023-06-01T03:13:44.253Z,6.00
2023-06-01T03:14:45.075Z,5.00
2023-06-01T03:15:45.990Z,5.00
2023-06-01T03:16:46.798Z,7.00
2023-06-01T03:17:47.714Z,4.00
2023-06-01T03:18:48.587Z,2.00
2023-06-01T03:19:49.377Z,2.00
2023-06-01T03:20:50.216Z,4.00
2023-06-01T03:21:51.105Z,7.00
2023-06-01T03:22:51.956Z,8.00
2023-06-01T03:23:52.755Z,7.00
2023-06-01T03:24:53.566Z,9.00
2023-06-01T03:25:54.413Z,13.00
2023-06-01T03:26:55.239Z,14.00
2023-06-01T03:27:56.071Z,14.00
2023-06-01T03:28:56.895Z,13.00
2023-06-01T03:29:57.744Z,13.00
2023-06-01T03:30:58.586Z,15.00
2023-06-01T03:31:59.388Z,16.00
2023-06-01T03:33:00.280Z,20.00
2023-06-01T03:34:01.098Z,23.00
2023-06-01T03:35:01.961Z,25.00
2023-06-01T03:36:02.771Z,28.00
2023-06-01T03:37:03.592Z,28.00
2023-06-01T03:38:04.428Z,24.00
2023-06-01T03:39:05.237Z,28.00
2023-06-01T03:40:06.096Z,34.00
2023-06-01T03:41:06.945Z,34.00
2023-06-01T03:42:07.761Z,35.00
2023-06-01T03:43:08.586Z,35.00
2023-06-01T03:44:09.419Z,38.00
2023-06-01T03:45:10.259Z,39.00
2023-06-01T03:46:11.132Z,47.00
2023-06-01T03:47:11.920Z,44.00
2023-06-01T03:48:12.826Z,48.00
2023-06-01T03:49:13.633Z,50.00
2023-06-01T03:50:14.469Z,52.00
2023-06-01T03:51:15.293Z,56.00
2023-06-01T03:52:16.119Z,59.00
2023-06-01T03:53:16.942Z,64.00
2023-06-01T03:54:17.776Z,66.00
2023-06-01T03:55:18.594Z,68.00
2023-06-01T03:56:19.413Z,69.00
2023-06-01T03:57:20.247Z,79.00
2023-06-01T03:58:21.062Z,82.00
2023-06-01T03:59:21.900Z,81.00
2023-06-01T04:00:22.744Z,86.00
2023-06-01T04:01:23.581Z,83.00
2023-06-01T04:02:24.492Z,87.00
2023-06-01T04:03:25.368Z,93.00
2023-06-01T04:04:26.215Z,96.00
2023-06-01T04:05:27.179Z,101.00
2023-06-01T04:06:27.976Z,99.00
2023-06-01T04:07:28.803Z,106.00
2023-06-01T04:08:29.638Z,107.00
2023-06-01T04:09:30.481Z,110.00
2023-06-01T04:10:31.283Z,117.00
2023-06-01T04:11:32.108Z,119.00
2023-06-01T04:12:32.927Z,121.00
2023-06-01T04:13:34.198Z,124.00
2023-06-01T04:14:34.557Z,128.00
2023-06-01T04:15:35.506Z,130.00
2023-06-01T04:16:36.379Z,136.00
2023-06-01T04:17:37.300Z,140.00
2023-06-01T04:18:38.107Z,152.00
2023-06-01T04:19:38.934Z,150.00
2023-06-01T04:20:39.750Z,150.00
2023-06-01T04:21:40.627Z,152.00
2023-06-01T04:22:41.417Z,157.00
2023-06-01T04:23:42.240Z,161.00
2023-06-01T04:24:43.055Z,163.00
2023-06-01T04:25:43.911Z,163.00
2023-06-01T04:26:44.726Z,172.00
2023-06-01T04:27:45.589Z,176.00
2023-06-01T04:28:46.388Z,183.00
2023-06-01T04:29:47.216Z,181.00
2023-06-01T04:30:48.032Z,185.00
2023-06-01T04:31:48.880Z,192.00
2023-06-01T04:32:50.265Z,197.00
2023-06-01T04:33:50.192Z,202.00
2023-06-01T04:34:51.592Z,203.00
2023-06-01T04:35:51.942Z,211.00
2023-06-01T04:36:52.794Z,215.00
2023-06-01T04:37:53.612Z,220.00
2023-06-01T04:38:54.429Z,221.00
2023-06-01T04:39:55.257Z,225.00
2023-06-01T04:40:56.073Z,230.00
2023-06-01T04:41:56.913Z,239.00
2023-06-01T04:42:57.724Z,235.00
2023-06-01T04:43:58.550Z,241.00
2023-06-01T04:44:59.384Z,245.00
2023-06-01T04:46:00.222Z,253.00
2023-06-01T04:47:01.041Z,254.00
2023-06-01T04:48:01.888Z,258.00
2023-06-01T04:49:02.686Z,267.00
2023-06-01T04:50:03.502Z,267.00
2023-06-01T04:51:04.448Z,274.00
2023-06-01T04:52:05.270Z,278.00
2023-06-01T04:53:06.086Z,286.00
2023-06-01T04:54:06.915Z,289.00
2023-06-01T04:55:07.731Z,294.00
2023-06-01T04:56:08.572Z,301.00
2023-06-01T04:57:09.395Z,306.00
2023-06-01T04:58:10.221Z,306.00
2023-06-01T04:59:11.050Z,312.00
2023-06-01T05:00:12.032Z,318.00
2023-06-01T05:01:12.409Z,314.00
2023-06-01T05:02:13.214Z,318.00
2023-06-01T05:03:14.040Z,332.00
2023-06-01T05:04:14.895Z,336.00
2023-06-01T05:05:15.696Z,338.00
2023-06-01T05:06:16.535Z,342.00
2023-06-01T05:07:17.352Z,347.00
2023-06-01T05:08:18.180Z,349.00
2023-06-01T05:09:19.001Z,355.00
2023-06-01T05:10:19.837Z,355.00
2023-06-01T05:11:20.663Z,353.00
2023-06-01T05:12:21.961Z,350.00
2023-06-01T05:13:22.297Z,355.00
2023-06-01T05:14:23.122Z,360.00
2023-06-01T05:15:23.958Z,360.00
2023-06-01T05:16:24.822Z,361.00
2023-06-01T05:17:25.685Z,357.00
2023-06-01T05:18:26.452Z,348.00
2023-06-01T05:19:27.280Z,351.00
2023-06-01T05:20:28.119Z,363.00
2023-06-01T05:21:28.967Z,358.00
2023-06-01T05:22:29.760Z,363.00
2023-06-01T05:23:30.576Z,365.00
2023-06-01T05:24:31.401Z,350.00
2023-06-01T05:25:32.231Z,349.00
2023-06-01T05:26:33.061Z,358.00
2023-06-01T05:27:33.877Z,353.00
2023-06-01T05:28:36.008Z,359.00
2023-06-01T05:29:35.407Z,366.00
2023-06-01T05:30:36.224Z,351.00
2023-06-01T05:31:37.191Z,348.00
2023-06-01T05:32:37.694Z,360.00
2023-06-01T05:33:38.069Z,445.00
2023-06-01T05:34:38.881Z,426.00
2023-06-01T05:35:39.700Z,480.00
2023-06-01T05:36:40.518Z,450.00
2023-06-01T05:37:41.425Z,551.00
2023-06-01T05:38:42.267Z,553.00
2023-06-01T05:39:43.114Z,483.00
2023-06-01T05:40:43.916Z,504.00
2023-06-01T05:41:44.748Z,550.00
2023-06-01T05:42:45.570Z,524.00
2023-06-01T05:43:46.423Z,525.00
2023-06-01T05:44:47.250Z,530.00
2023-06-01T05:45:48.114Z,560.00
2023-06-01T05:46:48.901Z,558.00
2023-06-01T05:47:49.797Z,543.00
2023-06-01T05:48:50.585Z,576.00
2023-06-01T05:49:51.411Z,586.00
2023-06-01T05:50:52.235Z,599.00
2023-06-01T05:51:53.061Z,628.00
2023-06-01T05:52:53.904Z,612.00
2023-06-01T05:53:54.747Z,552.00
2023-06-01T05:54:55.590Z,556.00
2023-06-01T05:55:56.394Z,578.00
2023-06-01T05:56:57.250Z,578.00
2023-06-01T05:57:58.059Z,582.00
2023-06-01T05:58:58.922Z,597.00
2023-06-01T05:59:59.749Z,598.00
2023-06-01T06:01:00.878Z,623.00
2023-06-01T06:02:01.325Z,608.00
2023-06-01T06:03:02.169Z,591.00
2023-06-01T06:04:03.117Z,579.00
2023-06-01T06:05:03.905Z,606.00
2023-06-01T06:06:04.724Z,609.00
2023-06-01T06:07:05.565Z,609.00
2023-06-01T06:08:06.419Z,607.00
2023-06-01T06:09:07.236Z,614.00
2023-06-01T06:10:08.075Z,608.00
2023-06-01T06:11:08.899Z,630.00
2023-06-01T06:12:09.738Z,601.00
2023-06-01T06:13:10.574Z,613.00
2023-06-01T06:14:11.415Z,617.00
2023-06-01T06:15:12.205Z,632.00
2023-06-01T06:16:13.043Z,646.00
2023-06-01T06:17:13.881Z,647.00
2023-06-01T06:18:14.711Z,655.00
2023-06-01T06:19:15.524Z,662.00
2023-06-01T06:20:16.379Z,668.00
2023-06-01T06:21:19.470Z,688.00
2023-06-01T06:22:18.037Z,711.00
2023-06-01T06:23:18.830Z,731.00
2023-06-01T06:24:19.659Z,750.00
2023-06-01T06:25:20.526Z,730.00
2023-06-01T06:26:21.336Z,731.00
2023-06-01T06:27:22.198Z,729.00
2023-06-01T06:28:23.027Z,724.00
2023-06-01T06:29:23.836Z,736.00
2023-06-01T06:30:24.656Z,744.00
2023-06-01T06:31:25.513Z,745.00
2023-06-01T06:32:26.335Z,797.00
2023-06-01T06:33:27.168Z,860.00
2023-06-01T06:34:27.957Z,786.00
2023-06-01T06:35:28.778Z,823.00
2023-06-01T06:36:29.608Z,827.00
2023-06-01T06:37:30.459Z,831.00
2023-06-01T06:38:31.281Z,860.00
2023-06-01T06:39:32.112Z,891.00
2023-06-01T06:40:32.944Z,905.00
2023-06-01T06:41:33.785Z,868.00
2023-06-01T06:42:34.588Z,843.00
2023-06-01T06:43:35.415Z,833.00
2023-06-01T06:44:36.233Z,865.00
2023-06-01T06:45:37.071Z,878.00
2023-06-01T06:46:37.959Z,943.00
2023-06-01T06:47:38.805Z,888.00
2023-06-01T06:48:39.622Z,811.00
2023-06-01T06:49:40.444Z,354.00
2023-06-01T06:50:41.286Z,2045.00
2023-06-01T06:51:42.115Z,1588.00
2023-06-01T06:52:42.929Z,1464.00
2023-06-01T06:53:43.753Z,988.00
2023-06-01T06:54:44.607Z,1081.00
2023-06-01T06:55:45.434Z,1075.00
2023-06-01T06:56:46.249Z,1014.00
2023-06-01T06:57:47.077Z,1119.00
2023-06-01T06:58:56.713Z,1018.00
2023-06-01T06:59:49.628Z,1182.00
2023-06-01T07:00:49.434Z,1324.00
2023-06-01T07:01:50.281Z,1017.00
2023-06-01T07:02:51.139Z,995.00
2023-06-01T07:03:51.964Z,1482.00
2023-06-01T07:04:52.780Z,1268.00
2023-06-01T07:05:53.597Z,1349.00
2023-06-01T07:06:54.430Z,1107.00
2023-06-01T07:07:57.836Z,2041.00
2023-06-01T07:08:55.843Z,1377.00
2023-06-01T07:09:56.666Z,1651.00
2023-06-01T07:10:57.486Z,11752.00
2023-06-01T07:11:58.315Z,8473.00
2023-06-01T07:12:59.138Z,6174.00
2023-06-01T07:13:59.987Z,3014.00
2023-06-01T07:15:00.820Z,14339.00
2023-06-01T07:16:01.631Z,12911.00
2023-06-01T07:17:02.544Z,2366.00
2023-06-01T07:18:03.393Z,9747.00
2023-06-01T07:19:04.218Z,10195.00
2023-06-01T07:20:05.056Z,18568.00
2023-06-01T07:21:05.864Z,33087.00
2023-06-01T07:22:06.717Z,29235.00
2023-06-01T07:23:07.548Z,27018.00
2023-06-01T07:24:08.362Z,24423.00
2023-06-01T07:25:09.189Z,29199.00
2023-06-01T07:26:10.020Z,28649.00
2023-06-01T07:27:10.843Z,30014.00
2023-06-01T07:28:11.680Z,26667.00
2023-06-01T07:29:12.507Z,29746.00
2023-06-01T07:30:13.448Z,74461.00
2023-06-01T07:31:14.294Z,71911.00
2023-06-01T07:32:15.228Z,31528.00
2023-06-01T07:33:16.144Z,24538.00
2023-06-01T07:34:16.702Z,28059.00
2023-06-01T07:35:17.499Z,74603.00
2023-06-01T07:36:18.329Z,74536.00
2023-06-01T07:37:19.145Z,75051.00
2023-06-01T07:38:19.981Z,24907.00
2023-06-01T07:39:20.826Z,76343.00
2023-06-01T07:40:21.639Z,76927.00
2023-06-01T07:41:22.458Z,72463.00
2023-06-01T07:42:23.316Z,37150.00
2023-06-01T07:43:24.128Z,25237.00
2023-06-01T07:44:24.956Z,22516.00
2023-06-01T07:45:25.782Z,27279.00
2023-06-01T07:46:26.706Z,74267.00
2023-06-01T07:47:27.557Z,73823.00
2023-06-01T07:48:28.358Z,74773.00
2023-06-01T07:49:29.184Z,72027.00
2023-06-01T07:50:30.021Z,37106.00
2023-06-01T07:51:30.842Z,29036.00
2023-06-01T07:52:31.681Z,26676.00
2023-06-01T07:53:32.501Z,74198.00
2023-06-01T07:54:33.329Z,75297.00
2023-06-01T07:55:34.163Z,75178.00
2023-06-01T07:56:34.997Z,74520.00
2023-06-01T07:57:35.832Z,73925.00
2023-06-01T07:58:36.648Z,38036.00
2023-06-01T07:59:37.495Z,23036.00
2023-06-01T08:00:38.328Z,12597.00
2023-06-01T08:01:39.123Z,38330.00
2023-06-01T08:02:40.052Z,23339.00
2023-06-01T08:03:40.914Z,6412.00
2023-06-01T08:04:41.718Z,1690.00
2023-06-01T08:05:42.540Z,1431.00
2023-06-01T08:06:43.381Z,1344.00
2023-06-01T08:07:44.207Z,1292.00
2023-06-01T08:08:45.026Z,1233.00
2023-06-01T08:09:45.851Z,1179.00
2023-06-01T08:10:46.681Z,1156.00
2023-06-01T08:11:47.519Z,1163.00
2023-06-01T08:12:48.339Z,1120.00
2023-06-01T08:13:49.193Z,1096.00
2023-06-01T08:14:49.990Z,1105.00
2023-06-01T08:15:50.828Z,1113.00
2023-06-01T08:16:51.689Z,1091.00
2023-06-01T08:17:52.538Z,1072.00
2023-06-01T08:18:53.323Z,1047.00
2023-06-01T08:19:54.146Z,1037.00
2023-06-01T08:20:54.987Z,1031.00
2023-06-01T08:21:55.843Z,1037.00
2023-06-01T08:22:56.653Z,1013.00
2023-06-01T08:23:57.469Z,983.00
2023-06-01T08:24:58.309Z,970.00
2023-06-01T08:25:59.178Z,971.00
2023-06-01T08:27:00.091Z,987.00
2023-06-01T08:28:00.953Z,982.00
2023-06-01T08:29:01.748Z,961.00
2023-06-01T08:30:02.582Z,940.00
2023-06-01T08:31:03.644Z,946.00
2023-06-01T08:32:04.250Z,973.00
2023-06-01T08:33:05.087Z,946.00
2023-06-01T08:34:05.905Z,950.00
2023-06-01T08:35:06.764Z,943.00
2023-06-01T08:36:07.578Z,934.00
2023-06-01T08:37:08.412Z,915.00
2023-06-01T08:38:09.234Z,908.00
2023-06-01T08:39:10.058Z,940.00
2023-06-01T08:40:10.897Z,918.00
2023-06-01T08:41:11.725Z,892.00
2023-06-01T08:42:12.638Z,877.00
2023-06-01T08:43:13.133Z,875.00
2023-06-01T08:44:13.974Z,889.00
2023-06-01T08:45:14.810Z,894.00
2023-06-01T08:46:15.623Z,882.00
2023-06-01T08:47:16.541Z,864.00
2023-06-01T08:48:17.404Z,901.00
2023-06-01T08:49:18.242Z,879.00
2023-06-01T08:50:19.069Z,851.00
2023-06-01T08:51:19.896Z,891.00
2023-06-01T08:52:20.719Z,871.00
2023-06-01T08:53:21.537Z,864.00
2023-06-01T08:54:22.378Z,852.00
2023-06-01T08:55:23.240Z,811.00
2023-06-01T08:56:24.063Z,834.00
2023-06-01T08:57:24.901Z,827.00
2023-06-01T08:58:25.724Z,820.00
2023-06-01T08:59:26.548Z,836.00
2023-06-01T09:00:27.373Z,817.00
2023-06-01T09:01:28.340Z,798.00
2023-06-01T09:02:29.260Z,792.00
2023-06-01T09:03:30.162Z,823.00
2023-06-01T09:04:30.974Z,791.00
2023-06-01T09:05:31.797Z,812.00
2023-06-01T09:06:32.621Z,768.00
2023-06-01T09:07:34.238Z,801.00
2023-06-01T09:08:34.119Z,800.00
2023-06-01T09:09:34.990Z,799.00
2023-06-01T09:10:35.830Z,793.00
2023-06-01T09:11:36.674Z,820.00
2023-06-01T09:12:37.498Z,782.00
2023-06-01T09:13:38.338Z,781.00
2023-06-01T09:14:39.177Z,777.00
2023-06-01T09:15:39.998Z,786.00
2023-06-01T09:16:40.936Z,751.00
2023-06-01T09:17:41.804Z,775.00
2023-06-01T09:18:42.604Z,764.00
2023-06-01T09:19:43.448Z,771.00
2023-06-01T09:20:44.256Z,753.00
2023-06-01T09:21:45.128Z,738.00
2023-06-01T09:22:45.945Z,723.00
2023-06-01T09:23:46.770Z,713.00
2023-06-01T09:24:47.592Z,734.00
2023-06-01T09:25:48.417Z,736.00
2023-06-01T09:26:49.272Z,731.00
2023-06-01T09:27:50.190Z,864.00
2023-06-01T09:28:51.037Z,804.00
2023-06-01T09:29:51.872Z,800.00
2023-06-01T09:30:52.729Z,868.00
2023-06-01T09:31:53.522Z,766.00
2023-06-01T09:32:54.365Z,716.00
2023-06-01T09:33:55.163Z,706.00
2023-06-01T09:34:56.001Z,703.00
2023-06-01T09:35:56.826Z,674.00
2023-06-01T09:36:57.663Z,690.00
2023-06-01T09:37:58.475Z,696.00
2023-06-01T09:39:01.856Z,764.00
2023-06-01T09:39:59.799Z,749.00
2023-06-01T09:41:00.637Z,702.00
2023-06-01T09:42:01.460Z,708.00
2023-06-01T09:43:02.320Z,770.00
2023-06-01T09:44:03.141Z,754.00
2023-06-01T09:45:03.990Z,688.00
2023-06-01T09:46:04.828Z,632.00
2023-06-01T09:47:05.696Z,652.00
2023-06-01T09:48:06.683Z,640.00
2023-06-01T09:49:07.489Z,623.00
2023-06-01T09:50:08.318Z,559.00
2023-06-01T09:51:09.155Z,577.00
2023-06-01T09:52:09.978Z,488.00
2023-06-01T09:53:10.792Z,466.00
2023-06-01T09:54:11.617Z,483.00
2023-06-01T09:55:12.455Z,486.00
2023-06-01T09:56:13.266Z,489.00
2023-06-01T09:57:14.097Z,493.00
2023-06-01T09:58:14.914Z,541.00
2023-06-01T09:59:15.736Z,485.00
2023-06-01T10:00:16.595Z,438.00
2023-06-01T10:01:17.501Z,403.00
2023-06-01T10:02:18.278Z,661.00
2023-06-01T10:03:19.260Z,931.00
2023-06-01T10:04:19.610Z,807.00
2023-06-01T10:05:20.461Z,267.00
2023-06-01T10:06:21.275Z,484.00
2023-06-01T10:07:22.111Z,472.00
2023-06-01T10:08:22.922Z,469.00
2023-06-01T10:09:23.757Z,452.00
2023-06-01T10:10:24.588Z,485.00
2023-06-01T10:11:25.409Z,430.00
2023-06-01T10:12:26.229Z,443.00
2023-06-01T10:13:27.066Z,450.00
2023-06-01T10:14:27.906Z,530.00
2023-06-01T10:15:31.505Z,548.00
2023-06-01T10:16:29.560Z,548.00
2023-06-01T10:17:30.427Z,520.00
2023-06-01T10:18:31.217Z,416.00
2023-06-01T10:19:32.075Z,468.00
2023-06-01T10:20:32.848Z,620.00
2023-06-01T10:21:33.733Z,674.00
2023-06-01T10:22:34.521Z,634.00
2023-06-01T10:23:35.351Z,611.00
2023-06-01T10:24:36.181Z,531.00
2023-06-01T10:25:37.003Z,483.00
2023-06-01T10:26:37.818Z,449.00
2023-06-01T10:27:38.655Z,518.00
2023-06-01T10:28:39.496Z,464.00
2023-06-01T10:29:40.334Z,535.00
2023-06-01T10:30:41.162Z,446.00
2023-06-01T10:31:42.262Z,585.00
2023-06-01T10:32:43.016Z,1249.00
2023-06-01T10:33:43.804Z,674.00
2023-06-01T10:34:44.645Z,314.00
2023-06-01T10:35:45.475Z,406.00
2023-06-01T10:36:46.286Z,466.00
2023-06-01T10:37:47.131Z,427.00
2023-06-01T10:38:47.951Z,498.00
2023-06-01T10:39:48.775Z,403.00
2023-06-01T10:40:51.610Z,415.00
2023-06-01T10:41:50.562Z,909.00
2023-06-01T10:42:51.399Z,643.00
2023-06-01T10:43:52.220Z,325.00
2023-06-01T10:44:53.051Z,405.00
2023-06-01T10:45:53.899Z,428.00
2023-06-01T10:46:54.990Z,450.00
2023-06-01T10:47:55.442Z,589.00
2023-06-01T10:48:56.292Z,431.00
2023-06-01T10:49:57.147Z,515.00
2023-06-01T10:50:57.962Z,517.00
2023-06-01T10:51:58.808Z,1143.00
2023-06-01T10:52:59.662Z,376.00
2023-06-01T10:54:00.473Z,348.00
2023-06-01T10:55:01.291Z,402.00
2023-06-01T10:56:02.278Z,455.00
2023-06-01T10:57:03.085Z,457.00
2023-06-01T10:58:03.904Z,467.00
2023-06-01T10:59:13.714Z,477.00
2023-06-01T11:00:06.512Z,1454.00
2023-06-01T11:01:06.534Z,489.00
2023-06-01T11:02:07.015Z,405.00
2023-06-01T11:03:08.047Z,1595.00
2023-06-01T11:04:08.572Z,787.00
2023-06-01T11:05:08.970Z,681.00
2023-06-01T11:06:09.786Z,429.00
2023-06-01T11:07:10.608Z,340.00
2023-06-01T11:08:11.422Z,431.00
2023-06-01T11:09:12.244Z,415.00
2023-06-01T11:10:13.076Z,1260.00
2023-06-01T11:11:13.903Z,251.00
2023-06-01T11:12:14.751Z,320.00
2023-06-01T11:13:15.550Z,385.00
2023-06-01T11:14:16.414Z,407.00
2023-06-01T11:15:17.227Z,419.00
2023-06-01T11:16:18.066Z,421.00
2023-06-01T11:17:18.870Z,702.00
2023-06-01T11:18:19.725Z,370.00
2023-06-01T11:19:20.525Z,528.00
2023-06-01T11:20:21.362Z,388.00
2023-06-01T11:21:22.431Z,412.00
2023-06-01T11:22:22.931Z,406.00
2023-06-01T11:23:23.746Z,406.00
2023-06-01T11:24:24.605Z,409.00
2023-06-01T11:25:25.394Z,415.00
2023-06-01T11:26:26.284Z,423.00
2023-06-01T11:27:27.067Z,430.00
2023-06-01T11:28:27.914Z,437.00
2023-06-01T11:29:28.734Z,442.00
2023-06-01T11:30:29.606Z,660.00
2023-06-01T11:31:30.419Z,556.00
2023-06-01T11:32:31.245Z,394.00
2023-06-01T11:33:34.656Z,618.00
2023-06-01T11:34:32.668Z,425.00
2023-06-01T11:35:33.482Z,468.00
2023-06-01T11:36:34.312Z,482.00
2023-06-01T11:37:35.127Z,487.00
2023-06-01T11:38:37.227Z,493.00
2023-06-01T11:39:36.772Z,498.00
2023-06-01T11:40:40.049Z,507.00
2023-06-01T11:41:38.576Z,522.00
2023-06-01T11:42:39.411Z,1443.00
2023-06-01T11:43:40.276Z,488.00
2023-06-01T11:44:41.118Z,499.00
2023-06-01T11:45:42.794Z,366.00
2023-06-01T11:46:42.654Z,464.00
2023-06-01T11:47:43.496Z,527.00
2023-06-01T11:48:44.310Z,534.00
2023-06-01T11:49:45.137Z,588.00
2023-06-01T11:50:45.984Z,519.00
2023-06-01T11:51:46.865Z,535.00
2023-06-01T11:52:47.711Z,664.00
2023-06-01T11:53:48.536Z,509.00
2023-06-01T11:54:49.413Z,531.00
2023-06-01T11:55:50.185Z,531.00
2023-06-01T11:56:51.025Z,532.00
2023-06-01T11:57:51.852Z,528.00
2023-06-01T11:58:52.686Z,527.00
2023-06-01T11:59:53.502Z,525.00
2023-06-01T12:00:54.326Z,523.00
2023-06-01T12:01:55.232Z,522.00
2023-06-01T12:02:56.183Z,520.00
2023-06-01T12:03:56.667Z,517.00
2023-06-01T12:04:57.500Z,515.00
2023-06-01T12:05:58.325Z,1135.00
2023-06-01T12:06:59.163Z,994.00
2023-06-01T12:07:59.983Z,617.00
2023-06-01T12:09:00.818Z,408.00
2023-06-01T12:10:01.658Z,363.00
2023-06-01T12:11:02.658Z,462.00
2023-06-01T12:12:03.142Z,443.00
2023-06-01T12:13:03.963Z,431.00
2023-06-01T12:14:04.845Z,421.00
2023-06-01T12:15:05.646Z,412.00
2023-06-01T12:16:20.758Z,415.00
2023-06-01T12:17:08.289Z,437.00
2023-06-01T12:18:08.318Z,461.00
2023-06-01T12:19:08.691Z,468.00
2023-06-01T12:20:09.533Z,467.00
2023-06-01T12:21:10.353Z,464.00
2023-06-01T12:22:11.248Z,456.00
2023-06-01T12:23:12.027Z,444.00
2023-06-01T12:24:12.847Z,423.00
2023-06-01T12:25:13.692Z,418.00
2023-06-01T12:26:14.501Z,452.00
2023-06-01T12:27:15.345Z,1130.00
2023-06-01T12:28:16.150Z,358.00
2023-06-01T12:29:16.993Z,673.00
2023-06-01T12:30:17.819Z,437.00
2023-06-01T12:31:18.718Z,364.00
2023-06-01T12:32:19.902Z,398.00
2023-06-01T12:33:20.211Z,286.00
2023-06-01T12:34:21.050Z,421.00
2023-06-01T12:35:21.875Z,322.00
2023-06-01T12:36:22.706Z,772.00
2023-06-01T12:37:23.538Z,268.00
2023-06-01T12:38:24.363Z,346.00
2023-06-01T12:39:25.203Z,404.00
2023-06-01T12:40:26.080Z,951.00
2023-06-01T12:41:26.873Z,599.00
2023-06-01T12:42:27.696Z,393.00
2023-06-01T12:43:28.531Z,401.00
2023-06-01T12:44:29.363Z,388.00
2023-06-01T12:45:30.187Z,425.00
2023-06-01T12:46:31.089Z,483.00
2023-06-01T12:47:31.960Z,504.00
2023-06-01T12:48:32.774Z,491.00
2023-06-01T12:49:33.592Z,487.00